createdAt,value
2022-10-19T00:00:09.870Z,9.32
2022-10-19T00:01:22.734Z,4.75
2022-10-19T00:02:36.053Z,6.82
2022-10-19T00:05:00.991Z,8.57
2022-10-19T00:06:12.475Z,3.45
2022-10-19T00:07:24.160Z,6.07
2022-10-19T00:08:35.588Z,8.30
2022-10-19T00:09:47.071Z,5.40
2022-10-19T00:11:00.873Z,5.75
2022-10-19T00:12:13.338Z,6.50
2022-10-19T00:13:24.809Z,5.50
2022-10-19T00:14:36.234Z,6.63
2022-10-19T00:15:47.687Z,6.03
2022-10-19T00:16:59.262Z,4.78
2022-10-19T00:18:10.966Z,6.32
2022-10-19T00:19:23.847Z,6.13
2022-10-19T00:20:35.714Z,7.22
2022-10-19T00:21:47.920Z,6.63
2022-10-19T00:22:59.432Z,4.97
2022-10-19T00:24:11.075Z,6.18
2022-10-19T00:25:22.525Z,4.95
2022-10-19T00:26:34.231Z,5.20
2022-10-19T00:27:45.664Z,8.18
2022-10-19T00:28:57.709Z,9.18
2022-10-19T00:30:09.356Z,5.05
2022-10-19T00:31:20.872Z,5.50
2022-10-19T00:32:32.480Z,6.38
2022-10-19T00:33:46.742Z,3.70
2022-10-19T00:34:58.192Z,5.65
2022-10-19T00:36:23.168Z,4.30
2022-10-19T00:37:34.824Z,7.38
2022-10-19T00:38:46.818Z,6.72
2022-10-19T00:39:58.254Z,5.15
2022-10-19T00:41:09.719Z,7.07
2022-10-19T00:42:21.157Z,5.78
2022-10-19T00:43:32.687Z,5.13
2022-10-19T00:44:44.128Z,5.72
2022-10-19T00:45:55.600Z,4.85
2022-10-19T00:47:08.126Z,4.75
2022-10-19T00:48:30.722Z,5.55
2022-10-19T00:49:43.886Z,7.15
2022-10-19T00:50:56.312Z,7.25
2022-10-19T00:52:10.634Z,3.95
2022-10-19T00:53:23.727Z,3.85
2022-10-19T00:54:36.932Z,5.03
2022-10-19T00:55:48.536Z,5.95
2022-10-19T00:57:00.193Z,3.72
2022-10-19T00:58:11.874Z,6.43
2022-10-19T00:59:25.222Z,6.10
2022-10-19T01:00:36.686Z,3.95
2022-10-19T01:01:49.072Z,3.03
2022-10-19T01:03:01.277Z,4.32
2022-10-19T01:04:12.925Z,3.83
2022-10-19T01:05:24.590Z,1.90
2022-10-19T01:06:36.113Z,3.92
2022-10-19T01:07:49.923Z,6.13
2022-10-19T01:09:01.397Z,6.35
2022-10-19T01:10:13.048Z,3.38
2022-10-19T01:11:27.509Z,3.63
2022-10-19T01:13:05.265Z,4.22
2022-10-19T01:14:35.207Z,3.70
2022-10-19T01:15:59.819Z,4.05
2022-10-19T01:17:29.382Z,5.07
2022-10-19T01:19:09.445Z,5.97
2022-10-19T01:20:24.057Z,4.03
2022-10-19T01:21:55.798Z,5.63
2022-10-19T01:23:13.475Z,3.90
2022-10-19T01:24:40.650Z,3.47
2022-10-19T01:26:10.696Z,3.85
2022-10-19T01:27:34.840Z,4.45
2022-10-19T01:28:46.558Z,7.72
2022-10-19T01:29:57.981Z,4.80
2022-10-19T01:31:17.637Z,3.22
2022-10-19T01:32:41.145Z,4.82
2022-10-19T01:34:09.847Z,5.15
2022-10-19T01:35:26.012Z,3.55
2022-10-19T01:36:43.239Z,4.68
2022-10-19T01:38:06.681Z,3.83
2022-10-19T01:39:46.411Z,3.80
2022-10-19T01:41:00.627Z,3.25
2022-10-19T01:42:12.061Z,8.00
2022-10-19T01:43:36.603Z,10.20
2022-10-19T01:44:48.076Z,14.73
2022-10-19T01:46:19.826Z,6.40
2022-10-19T01:47:37.159Z,6.72
2022-10-19T01:48:52.116Z,10.98
2022-10-19T01:50:06.774Z,4.82
2022-10-19T01:51:20.724Z,8.55
2022-10-19T01:52:32.954Z,8.60
2022-10-19T01:53:47.036Z,6.10
2022-10-19T01:54:59.650Z,7.57
2022-10-19T01:56:12.179Z,5.55
2022-10-19T01:57:28.451Z,4.07
2022-10-19T01:58:41.149Z,4.47
2022-10-19T01:59:53.953Z,9.40
2022-10-19T02:01:07.409Z,10.35
2022-10-19T02:02:21.014Z,9.23
2022-10-19T02:03:34.019Z,8.63
2022-10-19T02:04:46.888Z,9.32
2022-10-19T02:05:58.549Z,5.00
2022-10-19T02:07:11.071Z,7.80
2022-10-19T02:08:25.469Z,8.10
2022-10-19T02:09:37.159Z,5.57
2022-10-19T02:10:48.736Z,7.70
2022-10-19T02:12:03.655Z,5.97
2022-10-19T02:13:15.724Z,4.00
2022-10-19T02:14:29.564Z,4.25
2022-10-19T02:15:43.141Z,3.83
2022-10-19T02:17:17.627Z,6.93
2022-10-19T02:18:32.160Z,6.65
2022-10-19T02:19:44.132Z,6.80
2022-10-19T02:20:55.834Z,3.47
2022-10-19T02:22:07.789Z,7.13
2022-10-19T02:23:20.585Z,5.10
2022-10-19T02:24:32.059Z,6.43
2022-10-19T02:25:43.496Z,5.53
2022-10-19T02:26:55.871Z,3.67
2022-10-19T02:28:07.605Z,6.07
2022-10-19T02:29:19.135Z,5.93
2022-10-19T02:30:30.603Z,7.45
2022-10-19T02:31:42.689Z,6.28
2022-10-19T02:32:54.194Z,5.78
2022-10-19T02:34:05.976Z,6.25
2022-10-19T02:35:17.471Z,12.05
2022-10-19T02:36:29.886Z,6.57
2022-10-19T02:37:41.520Z,12.60
2022-10-19T02:38:53.168Z,5.07
2022-10-19T02:40:05.076Z,5.03
2022-10-19T02:41:34.758Z,6.72
2022-10-19T02:42:50.196Z,3.30
2022-10-19T02:44:04.131Z,6.90
2022-10-19T02:45:35.854Z,7.45
2022-10-19T02:46:54.042Z,3.85
2022-10-19T02:48:08.531Z,5.78
2022-10-19T02:49:20.013Z,8.30
2022-10-19T02:50:31.530Z,5.43
2022-10-19T02:52:15.177Z,6.15
2022-10-19T02:53:26.725Z,6.97
2022-10-19T02:54:39.181Z,5.05
2022-10-19T02:55:50.773Z,4.55
2022-10-19T02:57:03.526Z,6.05
2022-10-19T02:58:15.113Z,4.63
2022-10-19T02:59:26.618Z,3.97
2022-10-19T03:00:38.127Z,5.05
2022-10-19T03:01:49.685Z,5.28
2022-10-19T03:03:01.238Z,5.28
2022-10-19T03:04:12.688Z,4.57
2022-10-19T03:05:24.134Z,4.25
2022-10-19T03:06:35.641Z,7.28
2022-10-19T03:07:47.116Z,5.43
2022-10-19T03:08:58.568Z,7.32
2022-10-19T03:10:10.140Z,5.03
2022-10-19T03:11:21.583Z,6.03
2022-10-19T03:12:33.139Z,4.70
2022-10-19T03:13:44.603Z,2.63
2022-10-19T03:14:56.436Z,3.95
2022-10-19T03:16:11.611Z,5.13
2022-10-19T03:17:23.076Z,4.00
2022-10-19T03:18:34.680Z,5.15
2022-10-19T03:19:46.159Z,8.27
2022-10-19T03:21:07.744Z,4.32
2022-10-19T03:22:19.188Z,4.72
2022-10-19T03:23:30.614Z,7.30
2022-10-19T03:24:42.290Z,4.88
2022-10-19T03:25:53.714Z,8.75
2022-10-19T03:27:05.182Z,9.63
2022-10-19T03:28:16.616Z,12.57
2022-10-19T03:29:28.038Z,10.27
2022-10-19T03:30:39.592Z,14.68
2022-10-19T03:31:51.259Z,11.32
2022-10-19T03:33:02.689Z,15.57
2022-10-19T03:34:14.209Z,14.13
2022-10-19T03:35:25.643Z,7.00
2022-10-19T03:36:38.620Z,15.80
2022-10-19T03:37:50.050Z,10.07
2022-10-19T03:39:03.468Z,7.97
2022-10-19T03:40:15.012Z,18.67
2022-10-19T03:41:27.642Z,13.32
2022-10-19T03:42:39.112Z,12.90
2022-10-19T03:43:50.907Z,8.35
2022-10-19T03:45:02.734Z,7.28
2022-10-19T03:46:14.430Z,8.52
2022-10-19T03:47:25.935Z,6.13
2022-10-19T03:48:37.532Z,10.30
2022-10-19T03:49:50.522Z,10.65
2022-10-19T03:51:02.983Z,9.38
2022-10-19T03:52:14.514Z,4.10
2022-10-19T03:53:26.030Z,10.43
2022-10-19T03:54:37.461Z,7.03
2022-10-19T03:55:48.948Z,6.07
2022-10-19T03:57:00.370Z,8.13
2022-10-19T03:58:11.804Z,8.82
2022-10-19T03:59:24.375Z,8.15
2022-10-19T04:00:35.817Z,7.53
2022-10-19T04:01:47.399Z,15.20
2022-10-19T04:02:58.849Z,16.38
2022-10-19T04:04:11.873Z,14.10
2022-10-19T04:05:23.287Z,15.10
2022-10-19T04:06:36.095Z,23.63
2022-10-19T04:07:47.580Z,27.33
2022-10-19T04:08:59.702Z,26.80
2022-10-19T04:10:11.234Z,28.77
2022-10-19T04:11:24.391Z,27.77
2022-10-19T04:12:35.850Z,34.58
2022-10-19T04:13:50.902Z,33.25
2022-10-19T04:15:02.504Z,34.20
2022-10-19T04:16:14.129Z,27.42
2022-10-19T04:17:25.806Z,26.63
2022-10-19T04:18:37.260Z,26.33
2022-10-19T04:19:48.718Z,18.13
2022-10-19T04:21:03.035Z,17.33
2022-10-19T04:22:14.510Z,19.02
2022-10-19T04:23:35.820Z,18.23
2022-10-19T04:24:47.282Z,20.08
2022-10-19T04:26:06.767Z,15.48
2022-10-19T04:27:18.386Z,17.95
2022-10-19T04:28:30.050Z,20.52
2022-10-19T04:29:41.545Z,17.05
2022-10-19T04:30:52.995Z,10.10
2022-10-19T04:32:04.697Z,27.00
2022-10-19T04:33:16.244Z,19.65
2022-10-19T04:34:27.733Z,10.63
2022-10-19T04:35:39.180Z,9.98
2022-10-19T04:36:50.599Z,10.50
2022-10-19T04:38:02.108Z,7.82
2022-10-19T04:39:13.974Z,12.00
2022-10-19T04:40:25.659Z,17.60
2022-10-19T04:41:37.541Z,30.35
2022-10-19T04:42:48.991Z,28.30
2022-10-19T04:44:02.106Z,38.85
2022-10-19T04:45:13.666Z,32.05
2022-10-19T04:46:25.826Z,32.72
2022-10-19T04:47:37.281Z,26.92
2022-10-19T04:48:48.901Z,22.27
2022-10-19T04:50:00.340Z,17.25
2022-10-19T04:51:12.053Z,16.85
2022-10-19T04:52:23.541Z,21.70
2022-10-19T04:53:35.184Z,20.35
2022-10-19T04:54:46.919Z,13.68
2022-10-19T04:55:58.374Z,12.00
2022-10-19T04:57:09.799Z,8.30
2022-10-19T04:58:21.297Z,9.18
2022-10-19T04:59:32.924Z,7.00
2022-10-19T05:00:44.362Z,9.90
2022-10-19T05:01:55.824Z,10.07
2022-10-19T05:03:07.479Z,11.80
2022-10-19T05:04:18.947Z,9.82
2022-10-19T05:05:32.077Z,7.95
2022-10-19T05:06:43.557Z,9.93
2022-10-19T05:07:54.999Z,9.35
2022-10-19T05:09:06.508Z,9.95
2022-10-19T05:10:18.343Z,10.48
2022-10-19T05:11:29.945Z,24.13
2022-10-19T05:12:41.375Z,12.77
2022-10-19T05:13:52.811Z,12.60
2022-10-19T05:15:04.427Z,33.85
2022-10-19T05:16:18.046Z,18.05
2022-10-19T05:17:30.567Z,21.55
2022-10-19T05:18:42.139Z,14.02
2022-10-19T05:19:53.592Z,45.72
2022-10-19T05:21:06.037Z,23.60
2022-10-19T05:22:17.511Z,20.77
2022-10-19T05:23:29.494Z,27.20
2022-10-19T05:24:40.938Z,31.00
2022-10-19T05:25:59.034Z,24.23
2022-10-19T05:27:10.464Z,30.23
2022-10-19T05:28:21.893Z,17.58
2022-10-19T05:29:34.023Z,21.13
2022-10-19T05:30:48.936Z,72.55
2022-10-19T05:32:00.546Z,106.03
2022-10-19T05:33:11.987Z,141.35
2022-10-19T05:34:23.441Z,59.22
2022-10-19T05:35:34.996Z,54.72
2022-10-19T05:36:46.470Z,60.50
2022-10-19T05:37:57.969Z,71.07
2022-10-19T05:39:12.607Z,55.05
2022-10-19T05:40:24.056Z,62.58
2022-10-19T05:41:35.570Z,73.13
2022-10-19T05:42:47.104Z,75.47
2022-10-19T05:43:59.483Z,46.25
2022-10-19T05:45:12.054Z,21.63
2022-10-19T05:46:24.138Z,15.88
2022-10-19T05:47:36.076Z,19.42
2022-10-19T05:48:47.949Z,24.27
2022-10-19T05:49:59.438Z,28.45
2022-10-19T05:51:12.179Z,40.53
2022-10-19T05:52:23.629Z,19.55
2022-10-19T05:53:35.385Z,29.48
2022-10-19T05:54:47.075Z,25.73
2022-10-19T05:55:58.665Z,17.90
2022-10-19T05:57:10.117Z,13.88
2022-10-19T05:58:21.738Z,14.93
2022-10-19T05:59:33.284Z,18.10
2022-10-19T06:00:50.408Z,8.25
2022-10-19T06:02:01.944Z,20.17
2022-10-19T06:03:13.409Z,16.65
2022-10-19T06:04:25.178Z,25.23
2022-10-19T06:05:36.984Z,14.80
2022-10-19T06:06:48.484Z,10.25
2022-10-19T06:08:00.062Z,12.27
2022-10-19T06:09:11.852Z,16.77
2022-10-19T06:10:25.818Z,20.50
2022-10-19T06:11:40.568Z,24.05
2022-10-19T06:12:52.501Z,26.65
2022-10-19T06:14:05.337Z,26.13
2022-10-19T06:15:16.841Z,22.27
2022-10-19T06:16:29.086Z,23.95
2022-10-19T06:17:40.510Z,25.38
2022-10-19T06:18:54.599Z,22.30
2022-10-19T06:20:06.383Z,25.02
2022-10-19T06:21:18.786Z,32.92
2022-10-19T06:22:30.496Z,21.70
2022-10-19T06:24:58.398Z,15.90
2022-10-19T06:26:11.332Z,12.30
2022-10-19T06:27:22.835Z,15.05
2022-10-19T06:28:34.893Z,16.30
2022-10-19T06:29:46.322Z,13.63
2022-10-19T06:30:58.563Z,15.48
2022-10-19T06:32:10.155Z,10.63
2022-10-19T06:33:21.620Z,14.32
2022-10-19T06:34:35.136Z,14.48
2022-10-19T06:35:46.557Z,11.23
2022-10-19T06:36:58.003Z,13.93
2022-10-19T06:38:09.792Z,8.93
2022-10-19T06:39:21.269Z,10.57
2022-10-19T06:40:32.759Z,10.60
2022-10-19T06:41:44.278Z,18.30
2022-10-19T06:42:56.353Z,12.38
2022-10-19T06:44:08.799Z,13.95
2022-10-19T06:45:22.389Z,10.00
2022-10-19T06:46:34.055Z,10.27
2022-10-19T06:47:48.923Z,14.52
2022-10-19T06:49:01.295Z,15.60
2022-10-19T06:50:12.756Z,9.82
2022-10-19T06:51:26.075Z,13.43
2022-10-19T06:52:37.677Z,13.20
2022-10-19T06:53:52.846Z,17.10
2022-10-19T06:55:07.479Z,15.00
2022-10-19T06:56:19.331Z,16.15
2022-10-19T06:57:30.807Z,11.75
2022-10-19T06:58:42.368Z,11.60
2022-10-19T06:59:53.824Z,12.25
2022-10-19T07:01:07.699Z,13.75
2022-10-19T07:02:19.553Z,11.85
2022-10-19T07:03:31.019Z,11.02
2022-10-19T07:04:42.452Z,14.55
2022-10-19T07:05:58.163Z,12.85
2022-10-19T07:07:09.631Z,7.40
2022-10-19T07:08:21.151Z,9.40
2022-10-19T07:09:32.746Z,12.35
2022-10-19T07:10:44.203Z,11.18
2022-10-19T07:11:55.658Z,9.57
2022-10-19T07:13:07.104Z,6.80
2022-10-19T07:14:18.553Z,6.97
2022-10-19T07:15:30.017Z,6.72
2022-10-19T07:16:41.457Z,6.68
2022-10-19T07:17:53.128Z,7.30
2022-10-19T07:19:04.553Z,9.73
2022-10-19T07:20:16.083Z,8.85
2022-10-19T07:21:27.587Z,7.03
2022-10-19T07:22:39.096Z,7.05
2022-10-19T07:23:51.057Z,6.68
2022-10-19T07:25:02.615Z,10.25
2022-10-19T07:26:15.347Z,8.50
2022-10-19T07:27:26.784Z,8.90
2022-10-19T07:28:39.390Z,5.05
2022-10-19T07:29:50.837Z,7.50
2022-10-19T07:31:06.380Z,3.92
2022-10-19T07:32:17.816Z,5.57
2022-10-19T07:33:29.343Z,5.78
2022-10-19T07:34:40.886Z,9.77
2022-10-19T07:35:58.395Z,5.82
2022-10-19T07:37:11.029Z,7.50
2022-10-19T07:38:22.492Z,5.75
2022-10-19T07:39:33.935Z,6.50
2022-10-19T07:40:47.399Z,8.18
2022-10-19T07:41:59.170Z,8.70
2022-10-19T07:43:10.612Z,7.90
2022-10-19T07:44:22.067Z,7.38
2022-10-19T07:45:35.858Z,11.43
2022-10-19T07:46:47.328Z,6.10
2022-10-19T07:47:59.049Z,11.45
2022-10-19T07:49:12.902Z,5.05
2022-10-19T07:50:25.267Z,4.95
2022-10-19T07:51:40.055Z,6.75
2022-10-19T07:52:52.289Z,6.32
2022-10-19T07:54:04.179Z,7.03
2022-10-19T07:55:15.661Z,16.27
2022-10-19T07:56:27.794Z,12.88
2022-10-19T07:57:40.757Z,12.88
2022-10-19T07:58:57.561Z,6.47
2022-10-19T08:00:09.471Z,6.85
2022-10-19T08:01:22.621Z,5.10
2022-10-19T08:02:45.637Z,9.95
2022-10-19T08:05:39.023Z,6.75
2022-10-19T08:06:51.848Z,6.25
2022-10-19T08:08:03.917Z,8.98
2022-10-19T08:09:33.368Z,7.47
2022-10-19T08:10:46.962Z,6.68
2022-10-19T08:11:58.427Z,5.05
2022-10-19T08:13:09.863Z,5.95
2022-10-19T08:14:21.331Z,6.05
2022-10-19T08:15:32.773Z,4.72
2022-10-19T08:16:44.718Z,5.90
2022-10-19T08:17:56.203Z,7.25
2022-10-19T08:19:09.243Z,5.97
2022-10-19T08:20:20.695Z,9.82
2022-10-19T08:21:32.210Z,8.10
2022-10-19T08:22:46.868Z,6.70
2022-10-19T08:23:58.490Z,7.63
2022-10-19T08:25:09.955Z,7.53
2022-10-19T08:26:21.470Z,7.47
2022-10-19T08:27:33.002Z,10.00
2022-10-19T08:28:44.527Z,12.63
2022-10-19T08:29:56.187Z,8.82
2022-10-19T08:31:11.185Z,10.05
2022-10-19T08:32:22.644Z,9.70
2022-10-19T08:33:34.147Z,8.82
2022-10-19T08:34:45.637Z,12.15
2022-10-19T08:35:57.159Z,12.65
2022-10-19T08:37:19.824Z,11.27
2022-10-19T08:38:41.431Z,15.60
2022-10-19T08:39:52.906Z,11.25
2022-10-19T08:41:12.680Z,13.75
2022-10-19T08:42:28.531Z,10.63
2022-10-19T08:43:43.224Z,8.50
2022-10-19T08:45:00.494Z,10.20
2022-10-19T08:46:24.114Z,10.02
2022-10-19T08:47:59.048Z,10.77
2022-10-19T08:49:12.382Z,11.05
2022-10-19T08:50:27.450Z,13.07
2022-10-19T08:51:42.225Z,8.95
2022-10-19T08:53:13.886Z,10.10
2022-10-19T08:54:35.379Z,4.78
2022-10-19T08:55:57.763Z,4.32
2022-10-19T09:08:46.566Z,6.13
2022-10-19T09:10:01.341Z,4.50
2022-10-19T09:11:17.672Z,6.15
2022-10-19T09:12:35.380Z,5.07
2022-10-19T09:14:05.898Z,5.25
2022-10-19T09:15:46.714Z,4.60
2022-10-19T09:17:04.367Z,4.57
2022-10-19T09:18:18.791Z,3.78
2022-10-19T09:19:32.321Z,4.43
2022-10-19T09:20:45.813Z,4.82
2022-10-19T09:22:06.354Z,8.13
2022-10-19T09:23:23.715Z,3.92
2022-10-19T09:24:53.914Z,4.75
2022-10-19T09:26:10.562Z,7.03
2022-10-19T09:27:35.582Z,3.33
2022-10-19T09:28:59.193Z,6.00
2022-10-19T09:30:20.863Z,3.92
2022-10-19T09:31:37.074Z,6.97
2022-10-19T09:32:59.496Z,6.33
2022-10-19T09:34:11.008Z,6.95
2022-10-19T09:35:22.471Z,7.20
2022-10-19T09:36:50.648Z,3.90
2022-10-19T09:38:08.302Z,6.40
2022-10-19T09:39:20.369Z,7.10
2022-10-19T09:40:32.089Z,9.60
2022-10-19T09:41:55.573Z,9.13
2022-10-19T09:43:20.741Z,10.10
2022-10-19T09:44:32.386Z,10.13
2022-10-19T09:46:00.141Z,7.77
2022-10-19T09:47:19.872Z,5.80
2022-10-19T09:48:31.307Z,5.70
2022-10-19T09:49:43.784Z,3.77
2022-10-19T09:50:59.206Z,5.47
2022-10-19T09:52:29.356Z,6.40
2022-10-19T09:53:47.914Z,4.77
2022-10-19T09:55:01.181Z,9.00
2022-10-19T09:56:22.682Z,7.50
2022-10-19T09:57:41.730Z,5.53
2022-10-19T09:58:55.684Z,6.80
2022-10-19T10:00:07.321Z,6.80
2022-10-19T10:01:43.092Z,3.37
2022-10-19T10:02:55.784Z,4.40
2022-10-19T10:04:07.291Z,5.13
2022-10-19T10:05:19.154Z,9.33
2022-10-19T10:06:30.610Z,5.17
2022-10-19T10:07:42.311Z,6.93
2022-10-19T10:08:58.818Z,4.13
2022-10-19T10:10:32.585Z,5.40
2022-10-19T10:11:47.342Z,5.93
2022-10-19T10:12:59.765Z,14.20
2022-10-19T10:14:14.015Z,3.67
2022-10-19T10:15:27.286Z,4.80
2022-10-19T10:16:38.742Z,9.67
2022-10-19T10:17:50.838Z,4.77
2022-10-19T10:19:12.489Z,6.10
2022-10-19T10:20:28.450Z,7.03
2022-10-19T10:21:48.043Z,5.63
2022-10-19T10:23:04.293Z,9.33
2022-10-19T10:24:16.785Z,6.23
2022-10-19T10:25:32.360Z,10.33
2022-10-19T10:26:47.178Z,5.70
2022-10-19T10:28:02.270Z,7.37
2022-10-19T10:29:20.264Z,6.33
2022-10-19T10:30:35.865Z,8.60
2022-10-19T10:31:54.563Z,6.00
2022-10-19T10:33:13.315Z,12.37
2022-10-19T10:34:38.780Z,9.27
2022-10-19T10:36:01.790Z,10.80
2022-10-19T10:37:22.513Z,4.67
2022-10-19T10:38:36.177Z,7.50
2022-10-19T10:39:51.018Z,6.60
2022-10-19T10:41:29.082Z,8.30
2022-10-19T10:42:42.861Z,9.93
2022-10-19T10:44:02.145Z,7.80
2022-10-19T10:45:41.323Z,3.43
2022-10-19T10:46:57.238Z,4.73
2022-10-19T10:48:31.944Z,3.07
2022-10-19T10:49:44.114Z,8.17
2022-10-19T10:50:56.163Z,3.37
2022-10-19T10:52:09.932Z,3.40
2022-10-19T10:53:36.891Z,3.33
2022-10-19T10:54:58.888Z,5.70
2022-10-19T10:56:27.451Z,3.10
2022-10-19T10:57:40.712Z,4.00
2022-10-19T10:58:57.672Z,2.83
2022-10-19T11:00:14.177Z,5.43
2022-10-19T11:01:32.890Z,4.87
2022-10-19T11:02:46.411Z,3.40
2022-10-19T11:04:03.523Z,4.87
2022-10-19T11:05:21.604Z,5.47
2022-10-19T11:06:36.880Z,7.23
2022-10-19T11:07:52.891Z,3.80
2022-10-19T11:09:11.362Z,6.30
2022-10-19T11:10:26.664Z,3.43
2022-10-19T11:11:40.941Z,4.07
2022-10-19T11:13:07.360Z,4.83
2022-10-19T11:14:38.617Z,3.83
2022-10-19T11:15:52.915Z,9.30
2022-10-19T11:17:06.530Z,4.10
2022-10-19T11:18:21.879Z,5.47
2022-10-19T11:19:36.516Z,4.83
2022-10-19T11:21:06.886Z,4.20
2022-10-19T11:22:31.039Z,2.83
2022-10-19T11:23:55.237Z,4.60
2022-10-19T11:25:15.676Z,4.80
2022-10-19T11:26:32.540Z,2.23
2022-10-19T11:27:46.719Z,4.13
2022-10-19T11:29:01.231Z,4.00
2022-10-19T11:30:12.764Z,2.77
2022-10-19T11:31:35.503Z,2.23
2022-10-19T11:32:55.624Z,4.17
2022-10-19T11:34:07.119Z,3.37
2022-10-19T11:35:18.554Z,5.33
2022-10-19T11:36:30.147Z,3.17
2022-10-19T11:38:18.840Z,5.77
2022-10-19T11:39:36.708Z,4.73
2022-10-19T11:41:22.595Z,2.80
2022-10-19T11:42:40.208Z,3.00
2022-10-19T11:44:10.228Z,5.07
2022-10-19T11:45:33.561Z,5.00
2022-10-19T11:46:53.589Z,4.23
2022-10-19T11:48:15.062Z,4.90
2022-10-19T11:49:45.019Z,5.87
2022-10-19T11:51:16.823Z,2.53
2022-10-19T11:52:50.976Z,4.40
2022-10-19T11:54:13.763Z,4.43
2022-10-19T11:55:27.323Z,5.20
2022-10-19T11:57:01.850Z,6.10
2022-10-19T11:58:34.886Z,6.33
2022-10-19T12:00:03.723Z,4.10
2022-10-19T12:01:48.892Z,5.23
2022-10-19T12:03:03.935Z,5.47
2022-10-19T12:04:21.647Z,6.63
2022-10-19T12:05:35.236Z,5.80
2022-10-19T12:07:06.425Z,3.23
2022-10-19T12:08:26.743Z,3.00
2022-10-19T12:09:56.680Z,4.97
2022-10-19T12:11:13.947Z,4.13
2022-10-19T12:12:31.161Z,4.03
2022-10-19T12:13:49.972Z,3.77
2022-10-19T12:15:11.050Z,3.97
2022-10-19T12:16:35.659Z,4.73
2022-10-19T12:17:48.399Z,5.60
2022-10-19T12:19:01.047Z,3.50
2022-10-19T12:20:30.646Z,3.63
2022-10-19T12:21:45.617Z,6.90
2022-10-19T12:23:00.473Z,3.63
2022-10-19T12:24:17.877Z,4.30
2022-10-19T12:25:29.368Z,3.30
2022-10-19T12:26:43.529Z,4.77
2022-10-19T12:27:55.258Z,4.37
2022-10-19T12:29:12.328Z,4.93
2022-10-19T12:30:24.471Z,3.87
2022-10-19T12:31:36.117Z,5.00
2022-10-19T12:33:10.840Z,4.17
2022-10-19T12:34:40.791Z,7.10
2022-10-19T12:35:58.198Z,5.20
2022-10-19T12:37:15.844Z,5.10
2022-10-19T12:38:35.371Z,7.70
2022-10-19T12:39:52.233Z,4.87
2022-10-19T12:41:07.447Z,6.20
2022-10-19T12:42:25.088Z,3.73
2022-10-19T12:43:44.030Z,5.50
2022-10-19T12:44:58.896Z,5.10
2022-10-19T12:46:28.602Z,5.77
2022-10-19T12:47:40.110Z,2.90
2022-10-19T12:49:10.042Z,3.77
2022-10-19T12:50:41.501Z,6.37
2022-10-19T12:51:54.201Z,2.93
2022-10-19T12:53:05.690Z,6.30
2022-10-19T12:54:22.938Z,5.40
2022-10-19T12:55:38.204Z,6.80
2022-10-19T12:56:53.552Z,2.90
2022-10-19T12:58:08.158Z,3.30
2022-10-19T12:59:45.583Z,8.33
2022-10-19T13:00:58.387Z,3.90
2022-10-19T13:02:24.768Z,5.93
2022-10-19T13:03:38.542Z,5.30
2022-10-19T13:04:54.401Z,3.13
2022-10-19T13:06:10.205Z,3.30
2022-10-19T13:07:21.786Z,3.77
2022-10-19T13:08:38.564Z,5.37
2022-10-19T13:09:50.066Z,3.97
2022-10-19T13:11:14.488Z,3.53
2022-10-19T13:12:27.038Z,7.53
2022-10-19T13:13:47.786Z,4.97
2022-10-19T13:15:03.213Z,2.93
2022-10-19T13:16:30.180Z,3.50
2022-10-19T13:17:45.783Z,12.47
2022-10-19T13:19:03.368Z,11.80
2022-10-19T13:20:14.873Z,12.03
2022-10-19T13:21:44.973Z,8.23
2022-10-19T13:22:59.360Z,7.37
2022-10-19T13:26:15.596Z,7.10
2022-10-19T13:27:30.454Z,6.90
2022-10-19T13:28:53.892Z,4.93
2022-10-19T13:30:05.654Z,9.43
2022-10-19T13:31:25.376Z,3.27
2022-10-19T13:32:45.992Z,4.87
2022-10-19T13:33:57.691Z,4.40
2022-10-19T13:35:27.616Z,5.23
2022-10-19T13:36:40.366Z,6.90
2022-10-19T13:38:10.235Z,7.93
2022-10-19T13:39:22.144Z,9.30
2022-10-19T13:40:33.937Z,9.87
2022-10-19T13:41:47.048Z,7.47
2022-10-19T13:42:58.780Z,7.37
2022-10-19T13:44:13.940Z,8.17
2022-10-19T13:45:27.493Z,4.77
2022-10-19T13:47:02.399Z,6.90
2022-10-19T13:48:21.530Z,11.60
2022-10-19T13:49:44.957Z,6.43
2022-10-19T13:51:10.764Z,7.57
2022-10-19T13:52:29.207Z,6.50
2022-10-19T13:53:50.828Z,7.50
2022-10-19T13:55:11.130Z,4.93
2022-10-19T13:58:14.185Z,11.83
2022-10-19T13:59:44.312Z,7.00
2022-10-19T14:01:01.877Z,6.17
2022-10-19T14:02:42.836Z,7.43
2022-10-19T14:04:32.706Z,6.47
2022-10-19T14:05:50.100Z,15.77
2022-10-19T14:07:07.666Z,13.87
2022-10-19T14:08:21.711Z,11.90
2022-10-19T14:09:42.716Z,9.87
2022-10-19T14:11:05.170Z,23.00
2022-10-19T14:12:19.253Z,14.30
2022-10-19T14:13:31.061Z,7.17
2022-10-19T14:14:44.742Z,12.20
2022-10-19T14:15:57.869Z,8.10
2022-10-19T14:18:34.467Z,6.90
2022-10-19T14:19:53.757Z,11.67
2022-10-19T14:21:06.392Z,7.37
2022-10-19T14:22:36.387Z,8.60
2022-10-19T14:25:17.481Z,9.07
2022-10-19T14:26:30.960Z,7.53
2022-10-19T14:27:45.936Z,5.73
2022-10-19T14:28:58.274Z,5.37
2022-10-19T14:30:22.812Z,3.13
2022-10-19T14:31:35.353Z,5.10
2022-10-19T14:32:49.381Z,5.07
2022-10-19T14:34:02.505Z,5.07
2022-10-19T14:35:40.100Z,3.60
2022-10-19T14:36:54.400Z,2.87
2022-10-19T14:38:09.281Z,1.97
2022-10-19T14:39:31.598Z,2.97
2022-10-19T14:40:43.085Z,1.63
2022-10-19T14:41:55.719Z,2.87
2022-10-19T14:43:27.040Z,3.57
2022-10-19T14:44:42.336Z,2.43
2022-10-19T14:46:07.207Z,5.73
2022-10-19T14:47:20.166Z,4.60
2022-10-19T14:48:31.616Z,8.27
2022-10-19T14:49:43.118Z,2.10
2022-10-19T14:50:57.727Z,2.17
2022-10-19T14:52:10.223Z,2.10
2022-10-19T14:53:30.768Z,2.43
2022-10-19T14:54:44.005Z,5.43
2022-10-19T14:55:57.454Z,4.23
2022-10-19T14:57:12.571Z,4.23
2022-10-19T14:58:25.607Z,4.33
2022-10-19T14:59:47.868Z,5.57
2022-10-19T15:00:59.671Z,2.50
2022-10-19T15:02:29.390Z,6.77
2022-10-19T15:03:43.929Z,4.27
2022-10-19T15:04:56.780Z,3.87
2022-10-19T15:06:08.945Z,4.53
2022-10-19T15:07:25.800Z,8.80
2022-10-19T15:08:37.944Z,4.20
2022-10-19T15:09:54.617Z,4.93
2022-10-19T15:11:06.507Z,2.07
2022-10-19T15:12:19.548Z,3.60
2022-10-19T15:13:35.332Z,4.03
2022-10-19T15:14:47.729Z,3.60
2022-10-19T15:15:59.339Z,5.20
2022-10-19T15:17:30.287Z,5.10
2022-10-19T15:18:49.725Z,13.93
2022-10-19T15:20:01.961Z,7.17
2022-10-19T15:21:15.843Z,7.93
2022-10-19T15:22:33.753Z,8.53
2022-10-19T15:23:49.856Z,13.43
2022-10-19T15:25:07.492Z,13.70
2022-10-19T15:26:18.938Z,21.07
2022-10-19T15:27:39.532Z,36.60
2022-10-19T15:28:51.355Z,28.30
2022-10-19T15:30:05.880Z,58.93
2022-10-19T15:31:17.290Z,60.40
2022-10-19T15:32:35.562Z,41.47
2022-10-19T15:33:57.689Z,22.67
2022-10-19T15:35:16.677Z,22.57
2022-10-19T15:36:29.487Z,19.97
2022-10-19T15:37:43.141Z,19.93
2022-10-19T15:39:11.519Z,18.67
2022-10-19T15:40:33.968Z,19.80
2022-10-19T15:41:45.556Z,15.87
2022-10-19T15:42:57.030Z,20.27
2022-10-19T15:44:28.434Z,15.13
2022-10-19T15:45:39.924Z,12.77
2022-10-19T15:46:51.412Z,9.43
2022-10-19T15:48:11.733Z,13.57
2022-10-19T15:49:26.443Z,9.80
2022-10-19T15:50:39.973Z,19.90
2022-10-19T15:51:51.587Z,28.03
2022-10-19T15:53:03.017Z,118.23
2022-10-19T15:54:19.031Z,451.80
2022-10-19T15:55:30.695Z,163.33
2022-10-19T15:56:42.985Z,98.60
2022-10-19T15:58:00.825Z,89.60
2022-10-19T15:59:17.506Z,95.30
2022-10-19T16:00:32.085Z,64.17
2022-10-19T16:01:44.121Z,77.90
2022-10-19T16:02:55.715Z,60.97
2022-10-19T16:04:07.381Z,54.30
2022-10-19T16:05:19.325Z,48.33
2022-10-19T16:06:32.758Z,43.80
2022-10-19T16:07:44.586Z,43.30
2022-10-19T16:08:56.431Z,57.63
2022-10-19T16:10:13.219Z,29.47
2022-10-19T16:11:25.792Z,42.30
2022-10-19T16:12:37.569Z,33.67
2022-10-19T16:13:49.295Z,30.60
2022-10-19T16:15:00.908Z,34.93
2022-10-19T16:16:14.812Z,29.53
2022-10-19T16:17:27.040Z,25.60
2022-10-19T16:18:39.557Z,30.15
2022-10-19T16:19:51.737Z,24.40
2022-10-19T16:21:04.020Z,25.67
2022-10-19T16:22:16.135Z,24.15
2022-10-19T16:23:27.926Z,21.00
2022-10-19T16:24:39.410Z,20.77
2022-10-19T16:25:51.255Z,19.88
2022-10-19T16:27:03.310Z,24.55
2022-10-19T16:28:15.336Z,17.80
2022-10-19T16:29:29.167Z,30.55
2022-10-19T16:30:44.472Z,40.87
2022-10-19T16:31:56.621Z,38.28
2022-10-19T16:33:08.262Z,40.58
2022-10-19T16:34:22.862Z,46.22
2022-10-19T16:35:35.082Z,40.95
2022-10-19T16:36:46.995Z,30.58
2022-10-19T16:37:59.435Z,21.77
2022-10-19T16:39:12.060Z,32.75
2022-10-19T16:40:27.407Z,24.55
2022-10-19T16:41:40.618Z,21.92
2022-10-19T16:42:59.077Z,16.00
2022-10-19T16:44:12.129Z,12.98
2022-10-19T16:45:23.660Z,14.35
2022-10-19T16:46:35.929Z,68.15
2022-10-19T16:47:49.545Z,146.18
2022-10-19T16:49:01.094Z,123.60
2022-10-19T16:50:13.097Z,67.35
2022-10-19T16:51:36.507Z,50.05
2022-10-19T16:52:49.115Z,54.33
2022-10-19T16:54:01.496Z,56.55
2022-10-19T16:55:13.407Z,40.17